sensor_id;sensor_type;location;lat;lon;timestamp;P1;durP1;ratioP1;P2;durP2;ratioP2
40635;SDS011;26642;55.766;37.828;2023-04-24T00:00:55;12.32;;;7.28;;
40635;SDS011;26642;55.766;37.828;2023-04-24T00:03:22;13.95;;;7.60;;
40635;SDS011;26642;55.766;37.828;2023-04-24T00:05:49;16.08;;;7.32;;
40635;SDS011;26642;55.766;37.828;2023-04-24T00:08:16;16.25;;;8.23;;
40635;SDS011;26642;55.766;37.828;2023-04-24T00:10:42;11.23;;;6.45;;
40635;SDS011;26642;55.766;37.828;2023-04-24T00:13:09;16.15;;;8.00;;
40635;SDS011;26642;55.766;37.828;2023-04-24T00:15:35;13.98;;;7.22;;
40635;SDS011;26642;55.766;37.828;2023-04-24T00:18:01;14.23;;;7.53;;
40635;SDS011;26642;55.766;37.828;2023-04-24T00:20:27;14.50;;;7.22;;
40635;SDS011;26642;55.766;37.828;2023-04-24T00:22:54;12.75;;;7.15;;
40635;SDS011;26642;55.766;37.828;2023-04-24T00:25:20;13.32;;;7.32;;
40635;SDS011;26642;55.766;37.828;2023-04-24T00:27:47;14.93;;;7.68;;
40635;SDS011;26642;55.766;37.828;2023-04-24T00:30:13;13.35;;;7.60;;
40635;SDS011;26642;55.766;37.828;2023-04-24T00:32:39;16.58;;;7.40;;
40635;SDS011;26642;55.766;37.828;2023-04-24T00:35:05;13.35;;;7.80;;
40635;SDS011;26642;55.766;37.828;2023-04-24T00:37:31;15.48;;;7.88;;
40635;SDS011;26642;55.766;37.828;2023-04-24T00:39:57;15.73;;;7.85;;
40635;SDS011;26642;55.766;37.828;2023-04-24T00:42:23;16.35;;;7.75;;
40635;SDS011;26642;55.766;37.828;2023-04-24T00:44:50;14.52;;;7.38;;
40635;SDS011;26642;55.766;37.828;2023-04-24T00:47:16;12.98;;;8.15;;
40635;SDS011;26642;55.766;37.828;2023-04-24T00:49:44;17.10;;;7.72;;
40635;SDS011;26642;55.766;37.828;2023-04-24T00:52:10;16.40;;;7.80;;
40635;SDS011;26642;55.766;37.828;2023-04-24T00:54:36;13.05;;;7.80;;
40635;SDS011;26642;55.766;37.828;2023-04-24T00:57:02;12.82;;;8.00;;
40635;SDS011;26642;55.766;37.828;2023-04-24T00:59:29;14.35;;;7.70;;
40635;SDS011;26642;55.766;37.828;2023-04-24T01:01:55;18.52;;;8.30;;
40635;SDS011;26642;55.766;37.828;2023-04-24T01:04:22;14.75;;;7.75;;
40635;SDS011;26642;55.766;37.828;2023-04-24T01:06:49;14.57;;;8.27;;
40635;SDS011;26642;55.766;37.828;2023-04-24T01:09:16;11.90;;;7.65;;
40635;SDS011;26642;55.766;37.828;2023-04-24T01:11:43;13.27;;;7.95;;
40635;SDS011;26642;55.766;37.828;2023-04-24T01:14:10;14.80;;;8.60;;
40635;SDS011;26642;55.766;37.828;2023-04-24T01:16:37;15.13;;;8.10;;
40635;SDS011;26642;55.766;37.828;2023-04-24T01:19:03;17.30;;;8.43;;
40635;SDS011;26642;55.766;37.828;2023-04-24T01:21:31;15.07;;;8.40;;
40635;SDS011;26642;55.766;37.828;2023-04-24T01:24:02;17.92;;;8.77;;
40635;SDS011;26642;55.766;37.828;2023-04-24T01:26:29;18.95;;;9.27;;
40635;SDS011;26642;55.766;37.828;2023-04-24T01:28:56;17.77;;;9.55;;
40635;SDS011;26642;55.766;37.828;2023-04-24T01:31:22;16.30;;;8.45;;
40635;SDS011;26642;55.766;37.828;2023-04-24T01:33:49;11.43;;;8.10;;
40635;SDS011;26642;55.766;37.828;2023-04-24T01:36:16;14.15;;;8.15;;
40635;SDS011;26642;55.766;37.828;2023-04-24T01:38:42;15.55;;;8.63;;
40635;SDS011;26642;55.766;37.828;2023-04-24T01:41:09;17.60;;;9.18;;
40635;SDS011;26642;55.766;37.828;2023-04-24T01:43:35;16.08;;;8.45;;
40635;SDS011;26642;55.766;37.828;2023-04-24T01:46:02;19.52;;;8.90;;
40635;SDS011;26642;55.766;37.828;2023-04-24T01:48:28;20.98;;;9.32;;
40635;SDS011;26642;55.766;37.828;2023-04-24T01:50:56;16.38;;;9.27;;
40635;SDS011;26642;55.766;37.828;2023-04-24T01:53:25;15.52;;;8.20;;
40635;SDS011;26642;55.766;37.828;2023-04-24T01:55:51;15.35;;;8.70;;
40635;SDS011;26642;55.766;37.828;2023-04-24T01:58:17;14.65;;;8.85;;
40635;SDS011;26642;55.766;37.828;2023-04-24T02:00:43;19.42;;;9.25;;
40635;SDS011;26642;55.766;37.828;2023-04-24T02:03:09;17.73;;;9.23;;
40635;SDS011;26642;55.766;37.828;2023-04-24T02:05:35;17.13;;;9.32;;
40635;SDS011;26642;55.766;37.828;2023-04-24T02:08:02;16.83;;;8.77;;
40635;SDS011;26642;55.766;37.828;2023-04-24T02:10:28;17.73;;;9.25;;
40635;SDS011;26642;55.766;37.828;2023-04-24T02:12:54;20.58;;;9.30;;
40635;SDS011;26642;55.766;37.828;2023-04-24T02:15:23;14.77;;;9.23;;
40635;SDS011;26642;55.766;37.828;2023-04-24T02:17:49;16.45;;;9.07;;
40635;SDS011;26642;55.766;37.828;2023-04-24T02:20:15;21.17;;;9.45;;
40635;SDS011;26642;55.766;37.828;2023-04-24T02:22:42;16.00;;;9.90;;
40635;SDS011;26642;55.766;37.828;2023-04-24T02:25:08;26.20;;;9.38;;
40635;SDS011;26642;55.766;37.828;2023-04-24T02:27:34;19.45;;;9.55;;
40635;SDS011;26642;55.766;37.828;2023-04-24T02:30:04;17.70;;;9.20;;
40635;SDS011;26642;55.766;37.828;2023-04-24T02:32:31;19.02;;;8.85;;
40635;SDS011;26642;55.766;37.828;2023-04-24T02:34:59;14.80;;;9.30;;
40635;SDS011;26642;55.766;37.828;2023-04-24T02:37:25;16.17;;;9.05;;
40635;SDS011;26642;55.766;37.828;2023-04-24T02:39:51;16.40;;;9.52;;
40635;SDS011;26642;55.766;37.828;2023-04-24T02:42:17;15.82;;;9.40;;
40635;SDS011;26642;55.766;37.828;2023-04-24T02:44:43;21.58;;;9.73;;
40635;SDS011;26642;55.766;37.828;2023-04-24T02:47:09;16.05;;;9.80;;
40635;SDS011;26642;55.766;37.828;2023-04-24T02:49:35;19.15;;;9.38;;
40635;SDS011;26642;55.766;37.828;2023-04-24T02:52:04;18.60;;;9.80;;
40635;SDS011;26642;55.766;37.828;2023-04-24T02:54:29;16.15;;;9.90;;
40635;SDS011;26642;55.766;37.828;2023-04-24T02:56:55;19.55;;;9.98;;
40635;SDS011;26642;55.766;37.828;2023-04-24T02:59:22;19.98;;;9.68;;
40635;SDS011;26642;55.766;37.828;2023-04-24T03:01:48;19.25;;;9.85;;
40635;SDS011;26642;55.766;37.828;2023-04-24T03:04:13;14.32;;;9.15;;
40635;SDS011;26642;55.766;37.828;2023-04-24T03:06:40;18.25;;;9.57;;
40635;SDS011;26642;55.766;37.828;2023-04-24T03:09:06;20.08;;;9.23;;
40635;SDS011;26642;55.766;37.828;2023-04-24T03:11:32;17.58;;;9.65;;
40635;SDS011;26642;55.766;37.828;2023-04-24T03:13:59;16.80;;;9.48;;
40635;SDS011;26642;55.766;37.828;2023-04-24T03:16:25;20.48;;;9.45;;
40635;SDS011;26642;55.766;37.828;2023-04-24T03:18:54;16.65;;;10.25;;
40635;SDS011;26642;55.766;37.828;2023-04-24T03:21:21;15.05;;;9.80;;
40635;SDS011;26642;55.766;37.828;2023-04-24T03:23:48;16.48;;;9.43;;
40635;SDS011;26642;55.766;37.828;2023-04-24T03:26:14;16.90;;;9.70;;
40635;SDS011;26642;55.766;37.828;2023-04-24T03:28:52;18.45;;;10.00;;
40635;SDS011;26642;55.766;37.828;2023-04-24T03:31:18;17.45;;;9.80;;
40635;SDS011;26642;55.766;37.828;2023-04-24T03:33:46;19.23;;;10.00;;
40635;SDS011;26642;55.766;37.828;2023-04-24T03:36:12;19.38;;;10.40;;
40635;SDS011;26642;55.766;37.828;2023-04-24T03:38:40;16.33;;;9.70;;
40635;SDS011;26642;55.766;37.828;2023-04-24T03:41:18;16.70;;;10.40;;
40635;SDS011;26642;55.766;37.828;2023-04-24T03:43:50;18.58;;;10.40;;
40635;SDS011;26642;55.766;37.828;2023-04-24T03:46:16;15.45;;;10.10;;
40635;SDS011;26642;55.766;37.828;2023-04-24T03:48:52;20.88;;;10.02;;
40635;SDS011;26642;55.766;37.828;2023-04-24T03:51:21;17.30;;;10.50;;
40635;SDS011;26642;55.766;37.828;2023-04-24T03:53:50;20.67;;;10.77;;
40635;SDS011;26642;55.766;37.828;2023-04-24T03:56:19;20.42;;;10.98;;
40635;SDS011;26642;55.766;37.828;2023-04-24T03:58:46;17.90;;;10.45;;
40635;SDS011;26642;55.766;37.828;2023-04-24T04:01:12;18.25;;;10.70;;
40635;SDS011;26642;55.766;37.828;2023-04-24T04:04:01;17.50;;;10.65;;
40635;SDS011;26642;55.766;37.828;2023-04-24T04:06:28;19.38;;;11.15;;
40635;SDS011;26642;55.766;37.828;2023-04-24T04:08:58;17.85;;;11.10;;
40635;SDS011;26642;55.766;37.828;2023-04-24T04:11:25;17.92;;;10.77;;
40635;SDS011;26642;55.766;37.828;2023-04-24T04:13:50;20.17;;;10.50;;
40635;SDS011;26642;55.766;37.828;2023-04-24T04:16:19;18.85;;;11.27;;
40635;SDS011;26642;55.766;37.828;2023-04-24T04:18:48;18.10;;;11.27;;
40635;SDS011;26642;55.766;37.828;2023-04-24T04:21:14;16.80;;;10.30;;
40635;SDS011;26642;55.766;37.828;2023-04-24T04:23:40;20.13;;;11.32;;
40635;SDS011;26642;55.766;37.828;2023-04-24T04:26:17;17.13;;;10.73;;
40635;SDS011;26642;55.766;37.828;2023-04-24T04:29:19;18.63;;;10.23;;
40635;SDS011;26642;55.766;37.828;2023-04-24T04:31:48;15.07;;;9.40;;
40635;SDS011;26642;55.766;37.828;2023-04-24T04:34:14;15.75;;;8.95;;
40635;SDS011;26642;55.766;37.828;2023-04-24T04:36:41;12.65;;;8.70;;
40635;SDS011;26642;55.766;37.828;2023-04-24T04:39:38;15.02;;;8.38;;
40635;SDS011;26642;55.766;37.828;2023-04-24T04:42:08;15.43;;;9.18;;
40635;SDS011;26642;55.766;37.828;2023-04-24T04:44:39;11.95;;;8.63;;
40635;SDS011;26642;55.766;37.828;2023-04-24T04:47:06;12.07;;;8.32;;
40635;SDS011;26642;55.766;37.828;2023-04-24T04:49:36;15.20;;;8.75;;
40635;SDS011;26642;55.766;37.828;2023-04-24T04:52:14;13.70;;;8.60;;
40635;SDS011;26642;55.766;37.828;2023-04-24T04:54:42;13.43;;;8.38;;
40635;SDS011;26642;55.766;37.828;2023-04-24T04:57:10;12.43;;;8.63;;
40635;SDS011;26642;55.766;37.828;2023-04-24T04:59:37;12.18;;;8.00;;
40635;SDS011;26642;55.766;37.828;2023-04-24T05:02:09;15.10;;;9.38;;
40635;SDS011;26642;55.766;37.828;2023-04-24T05:04:35;19.15;;;9.93;;
40635;SDS011;26642;55.766;37.828;2023-04-24T05:07:01;13.77;;;9.95;;
40635;SDS011;26642;55.766;37.828;2023-04-24T05:09:31;15.57;;;10.13;;
40635;SDS011;26642;55.766;37.828;2023-04-24T05:12:01;17.42;;;10.85;;
40635;SDS011;26642;55.766;37.828;2023-04-24T05:14:31;17.00;;;10.23;;
40635;SDS011;26642;55.766;37.828;2023-04-24T05:16:57;14.07;;;9.75;;
40635;SDS011;26642;55.766;37.828;2023-04-24T05:19:25;14.23;;;8.93;;
40635;SDS011;26642;55.766;37.828;2023-04-24T05:21:51;13.07;;;8.98;;
40635;SDS011;26642;55.766;37.828;2023-04-24T05:24:17;15.73;;;10.48;;
40635;SDS011;26642;55.766;37.828;2023-04-24T05:27:02;17.15;;;9.15;;
40635;SDS011;26642;55.766;37.828;2023-04-24T05:29:34;14.15;;;8.60;;
40635;SDS011;26642;55.766;37.828;2023-04-24T05:32:02;13.55;;;9.35;;
40635;SDS011;26642;55.766;37.828;2023-04-24T05:34:30;13.55;;;8.90;;
40635;SDS011;26642;55.766;37.828;2023-04-24T05:36:56;13.40;;;8.68;;
40635;SDS011;26642;55.766;37.828;2023-04-24T05:39:22;14.75;;;8.38;;
40635;SDS011;26642;55.766;37.828;2023-04-24T05:41:50;13.07;;;9.23;;
40635;SDS011;26642;55.766;37.828;2023-04-24T05:44:16;12.90;;;9.98;;
40635;SDS011;26642;55.766;37.828;2023-04-24T05:46:42;13.35;;;8.68;;
40635;SDS011;26642;55.766;37.828;2023-04-24T05:49:10;12.55;;;8.68;;
40635;SDS011;26642;55.766;37.828;2023-04-24T05:51:36;14.55;;;10.88;;
40635;SDS011;26642;55.766;37.828;2023-04-24T05:54:02;17.33;;;11.05;;
40635;SDS011;26642;55.766;37.828;2023-04-24T05:56:29;14.25;;;10.57;;
40635;SDS011;26642;55.766;37.828;2023-04-24T05:58:57;15.15;;;9.80;;
40635;SDS011;26642;55.766;37.828;2023-04-24T06:01:23;14.35;;;9.77;;
40635;SDS011;26642;55.766;37.828;2023-04-24T06:03:57;13.38;;;10.40;;
40635;SDS011;26642;55.766;37.828;2023-04-24T06:06:24;15.45;;;10.45;;
40635;SDS011;26642;55.766;37.828;2023-04-24T06:08:52;14.20;;;9.27;;
40635;SDS011;26642;55.766;37.828;2023-04-24T06:11:18;13.90;;;9.85;;
40635;SDS011;26642;55.766;37.828;2023-04-24T06:13:45;13.40;;;9.77;;
40635;SDS011;26642;55.766;37.828;2023-04-24T06:16:34;14.82;;;9.05;;
40635;SDS011;26642;55.766;37.828;2023-04-24T06:19:07;13.68;;;8.95;;
40635;SDS011;26642;55.766;37.828;2023-04-24T06:21:34;12.95;;;9.68;;
40635;SDS011;26642;55.766;37.828;2023-04-24T06:24:00;13.95;;;8.90;;
40635;SDS011;26642;55.766;37.828;2023-04-24T06:26:26;13.40;;;9.02;;
40635;SDS011;26642;55.766;37.828;2023-04-24T06:28:52;11.32;;;8.48;;
40635;SDS011;26642;55.766;37.828;2023-04-24T06:31:23;10.60;;;8.02;;
40635;SDS011;26642;55.766;37.828;2023-04-24T06:33:49;15.98;;;11.20;;
40635;SDS011;26642;55.766;37.828;2023-04-24T06:36:15;13.07;;;10.65;;
40635;SDS011;26642;55.766;37.828;2023-04-24T06:38:42;12.55;;;9.52;;
40635;SDS011;26642;55.766;37.828;2023-04-24T06:41:09;12.70;;;8.65;;
40635;SDS011;26642;55.766;37.828;2023-04-24T06:43:35;20.13;;;9.20;;
40635;SDS011;26642;55.766;37.828;2023-04-24T06:46:01;14.38;;;8.48;;
40635;SDS011;26642;55.766;37.828;2023-04-24T06:48:28;16.35;;;8.82;;
40635;SDS011;26642;55.766;37.828;2023-04-24T06:50:54;10.63;;;8.05;;
40635;SDS011;26642;55.766;37.828;2023-04-24T06:53:20;12.90;;;8.07;;
40635;SDS011;26642;55.766;37.828;2023-04-24T06:55:46;11.40;;;7.72;;
40635;SDS011;26642;55.766;37.828;2023-04-24T06:58:12;10.10;;;7.65;;
40635;SDS011;26642;55.766;37.828;2023-04-24T07:00:39;10.77;;;7.53;;
40635;SDS011;26642;55.766;37.828;2023-04-24T07:03:05;9.68;;;7.18;;
40635;SDS011;26642;55.766;37.828;2023-04-24T07:05:31;13.63;;;7.38;;
40635;SDS011;26642;55.766;37.828;2023-04-24T07:07:59;11.88;;;6.70;;
40635;SDS011;26642;55.766;37.828;2023-04-24T07:10:25;8.68;;;6.45;;
40635;SDS011;26642;55.766;37.828;2023-04-24T07:12:54;7.30;;;6.03;;
40635;SDS011;26642;55.766;37.828;2023-04-24T07:15:21;8.13;;;6.13;;
40635;SDS011;26642;55.766;37.828;2023-04-24T07:17:48;12.27;;;5.88;;
40635;SDS011;26642;55.766;37.828;2023-04-24T07:20:15;8.93;;;6.38;;
40635;SDS011;26642;55.766;37.828;2023-04-24T07:22:41;7.82;;;5.80;;
40635;SDS011;26642;55.766;37.828;2023-04-24T07:25:07;7.15;;;5.53;;
40635;SDS011;26642;55.766;37.828;2023-04-24T07:27:33;7.85;;;5.68;;
40635;SDS011;26642;55.766;37.828;2023-04-24T07:30:01;7.97;;;5.45;;
40635;SDS011;26642;55.766;37.828;2023-04-24T07:32:29;7.03;;;4.93;;
40635;SDS011;26642;55.766;37.828;2023-04-24T07:34:55;6.95;;;4.90;;
40635;SDS011;26642;55.766;37.828;2023-04-24T07:37:21;5.45;;;4.95;;
40635;SDS011;26642;55.766;37.828;2023-04-24T07:39:48;8.00;;;4.90;;
40635;SDS011;26642;55.766;37.828;2023-04-24T07:42:14;5.85;;;4.97;;
40635;SDS011;26642;55.766;37.828;2023-04-24T07:44:40;10.45;;;5.13;;
40635;SDS011;26642;55.766;37.828;2023-04-24T07:47:06;6.38;;;4.72;;
40635;SDS011;26642;55.766;37.828;2023-04-24T07:49:32;5.65;;;4.68;;
40635;SDS011;26642;55.766;37.828;2023-04-24T07:52:00;6.70;;;5.80;;
40635;SDS011;26642;55.766;37.828;2023-04-24T07:54:27;7.18;;;4.90;;
40635;SDS011;26642;55.766;37.828;2023-04-24T07:56:54;6.03;;;4.80;;
40635;SDS011;26642;55.766;37.828;2023-04-24T07:59:20;5.65;;;4.97;;
40635;SDS011;26642;55.766;37.828;2023-04-24T08:01:45;6.25;;;4.90;;
40635;SDS011;26642;55.766;37.828;2023-04-24T08:04:11;6.88;;;5.10;;
40635;SDS011;26642;55.766;37.828;2023-04-24T08:06:37;4.95;;;4.50;;
40635;SDS011;26642;55.766;37.828;2023-04-24T08:09:03;5.88;;;4.78;;
40635;SDS011;26642;55.766;37.828;2023-04-24T08:11:29;5.97;;;5.07;;
40635;SDS011;26642;55.766;37.828;2023-04-24T08:13:55;5.20;;;4.47;;
40635;SDS011;26642;55.766;37.828;2023-04-24T08:16:21;6.25;;;4.90;;
40635;SDS011;26642;55.766;37.828;2023-04-24T08:18:49;5.57;;;5.03;;
40635;SDS011;26642;55.766;37.828;2023-04-24T08:21:15;5.43;;;4.72;;
40635;SDS011;26642;55.766;37.828;2023-04-24T08:23:44;6.47;;;4.78;;
40635;SDS011;26642;55.766;37.828;2023-04-24T08:26:10;6.22;;;4.95;;
40635;SDS011;26642;55.766;37.828;2023-04-24T08:28:37;5.03;;;4.40;;
40635;SDS011;26642;55.766;37.828;2023-04-24T08:31:03;6.32;;;5.20;;
40635;SDS011;26642;55.766;37.828;2023-04-24T08:33:29;7.30;;;4.90;;
40635;SDS011;26642;55.766;37.828;2023-04-24T08:36:02;5.82;;;4.65;;
40635;SDS011;26642;55.766;37.828;2023-04-24T08:38:30;5.60;;;4.75;;
40635;SDS011;26642;55.766;37.828;2023-04-24T08:40:57;6.90;;;5.47;;
40635;SDS011;26642;55.766;37.828;2023-04-24T08:43:25;6.95;;;4.95;;
40635;SDS011;26642;55.766;37.828;2023-04-24T08:45:52;6.85;;;5.03;;
40635;SDS011;26642;55.766;37.828;2023-04-24T08:48:20;6.97;;;6.07;;
40635;SDS011;26642;55.766;37.828;2023-04-24T08:50:48;7.72;;;6.65;;
40635;SDS011;26642;55.766;37.828;2023-04-24T08:53:16;6.68;;;5.28;;
40635;SDS011;26642;55.766;37.828;2023-04-24T08:55:43;6.00;;;5.13;;
40635;SDS011;26642;55.766;37.828;2023-04-24T08:58:12;5.45;;;4.95;;
40635;SDS011;26642;55.766;37.828;2023-04-24T09:00:39;6.78;;;4.78;;
40635;SDS011;26642;55.766;37.828;2023-04-24T09:03:09;7.13;;;5.90;;
40635;SDS011;26642;55.766;37.828;2023-04-24T09:05:35;6.68;;;5.43;;
40635;SDS011;26642;55.766;37.828;2023-04-24T09:08:02;6.07;;;4.93;;
40635;SDS011;26642;55.766;37.828;2023-04-24T09:10:30;7.43;;;4.97;;
40635;SDS011;26642;55.766;37.828;2023-04-24T09:12:56;5.22;;;4.72;;
40635;SDS011;26642;55.766;37.828;2023-04-24T09:15:27;5.70;;;4.57;;
40635;SDS011;26642;55.766;37.828;2023-04-24T09:17:53;5.28;;;4.63;;
40635;SDS011;26642;55.766;37.828;2023-04-24T09:20:19;6.32;;;4.57;;
40635;SDS011;26642;55.766;37.828;2023-04-24T09:22:45;7.57;;;4.80;;
40635;SDS011;26642;55.766;37.828;2023-04-24T09:25:12;8.25;;;5.13;;
40635;SDS011;26642;55.766;37.828;2023-04-24T09:27:41;7.05;;;4.72;;
40635;SDS011;26642;55.766;37.828;2023-04-24T09:30:11;7.35;;;4.93;;
40635;SDS011;26642;55.766;37.828;2023-04-24T09:32:38;6.60;;;5.25;;
40635;SDS011;26642;55.766;37.828;2023-04-24T09:35:14;5.82;;;4.95;;
40635;SDS011;26642;55.766;37.828;2023-04-24T09:37:41;5.35;;;4.85;;
40635;SDS011;26642;55.766;37.828;2023-04-24T09:42:39;6.28;;;5.05;;
40635;SDS011;26642;55.766;37.828;2023-04-24T09:45:11;4.90;;;4.38;;
40635;SDS011;26642;55.766;37.828;2023-04-24T09:47:38;6.28;;;5.03;;
40635;SDS011;26642;55.766;37.828;2023-04-24T09:50:14;6.25;;;4.97;;
40635;SDS011;26642;55.766;37.828;2023-04-24T09:52:42;8.27;;;4.93;;
40635;SDS011;26642;55.766;37.828;2023-04-24T09:55:19;6.05;;;4.70;;
40635;SDS011;26642;55.766;37.828;2023-04-24T09:57:52;8.48;;;5.15;;
40635;SDS011;26642;55.766;37.828;2023-04-24T10:00:29;6.30;;;4.90;;
40635;SDS011;26642;55.766;37.828;2023-04-24T10:02:57;6.15;;;4.45;;
40635;SDS011;26642;55.766;37.828;2023-04-24T10:05:35;7.53;;;5.60;;
40635;SDS011;26642;55.766;37.828;2023-04-24T10:10:29;5.43;;;4.50;;
40635;SDS011;26642;55.766;37.828;2023-04-24T10:12:59;5.95;;;4.60;;
40635;SDS011;26642;55.766;37.828;2023-04-24T10:15:26;4.93;;;4.43;;
40635;SDS011;26642;55.766;37.828;2023-04-24T10:17:52;5.57;;;4.93;;
40635;SDS011;26642;55.766;37.828;2023-04-24T10:20:19;5.10;;;4.60;;
40635;SDS011;26642;55.766;37.828;2023-04-24T10:22:51;6.15;;;4.55;;
40635;SDS011;26642;55.766;37.828;2023-04-24T10:25:18;7.43;;;4.57;;
40635;SDS011;26642;55.766;37.828;2023-04-24T10:27:46;6.20;;;4.82;;
40635;SDS011;26642;55.766;37.828;2023-04-24T10:30:13;5.30;;;4.80;;
40635;SDS011;26642;55.766;37.828;2023-04-24T10:32:40;8.02;;;5.07;;
40635;SDS011;26642;55.766;37.828;2023-04-24T10:35:06;5.97;;;5.10;;
40635;SDS011;26642;55.766;37.828;2023-04-24T10:37:37;5.25;;;4.40;;
40635;SDS011;26642;55.766;37.828;2023-04-24T10:40:06;5.32;;;4.82;;
40635;SDS011;26642;55.766;37.828;2023-04-24T10:42:33;5.00;;;4.50;;
40635;SDS011;26642;55.766;37.828;2023-04-24T10:45:04;9.77;;;4.68;;
40635;SDS011;26642;55.766;37.828;2023-04-24T10:47:39;6.50;;;4.75;;
40635;SDS011;26642;55.766;37.828;2023-04-24T10:52:48;6.38;;;4.10;;
40635;SDS011;26642;55.766;37.828;2023-04-24T10:58:09;6.47;;;4.72;;
40635;SDS011;26642;55.766;37.828;2023-04-24T11:00:39;5.45;;;4.85;;
40635;SDS011;26642;55.766;37.828;2023-04-24T11:03:07;4.85;;;4.18;;
40635;SDS011;26642;55.766;37.828;2023-04-24T11:08:43;7.90;;;4.60;;
40635;SDS011;26642;55.766;37.828;2023-04-24T11:11:11;5.63;;;4.65;;
40635;SDS011;26642;55.766;37.828;2023-04-24T11:16:20;5.32;;;4.47;;
40635;SDS011;26642;55.766;37.828;2023-04-24T11:18:52;5.30;;;4.43;;
40635;SDS011;26642;55.766;37.828;2023-04-24T11:21:25;5.60;;;4.95;;
40635;SDS011;26642;55.766;37.828;2023-04-24T11:23:57;5.05;;;4.10;;
40635;SDS011;26642;55.766;37.828;2023-04-24T11:26:23;8.27;;;5.00;;
40635;SDS011;26642;55.766;37.828;2023-04-24T11:29:06;11.40;;;4.78;;
40635;SDS011;26642;55.766;37.828;2023-04-24T11:31:40;8.07;;;4.63;;
40635;SDS011;26642;55.766;37.828;2023-04-24T11:34:08;6.07;;;4.47;;
40635;SDS011;26642;55.766;37.828;2023-04-24T11:36:35;5.15;;;4.60;;
40635;SDS011;26642;55.766;37.828;2023-04-24T11:39:01;4.88;;;4.10;;
40635;SDS011;26642;55.766;37.828;2023-04-24T11:41:27;5.55;;;4.30;;
40635;SDS011;26642;55.766;37.828;2023-04-24T11:43:54;5.25;;;4.15;;
40635;SDS011;26642;55.766;37.828;2023-04-24T11:46:21;5.53;;;4.50;;
40635;SDS011;26642;55.766;37.828;2023-04-24T11:48:47;4.53;;;4.07;;
40635;SDS011;26642;55.766;37.828;2023-04-24T11:51:13;5.60;;;4.10;;
40635;SDS011;26642;55.766;37.828;2023-04-24T11:53:40;5.63;;;4.03;;
40635;SDS011;26642;55.766;37.828;2023-04-24T11:56:06;5.13;;;4.05;;
40635;SDS011;26642;55.766;37.828;2023-04-24T11:58:38;6.47;;;4.18;;
40635;SDS011;26642;55.766;37.828;2023-04-24T12:01:04;4.35;;;3.95;;
40635;SDS011;26642;55.766;37.828;2023-04-24T12:03:30;4.53;;;3.95;;
40635;SDS011;26642;55.766;37.828;2023-04-24T12:06:09;5.78;;;4.03;;
40635;SDS011;26642;55.766;37.828;2023-04-24T12:08:36;5.72;;;4.10;;
40635;SDS011;26642;55.766;37.828;2023-04-24T12:11:04;6.78;;;4.32;;
40635;SDS011;26642;55.766;37.828;2023-04-24T12:13:32;6.65;;;4.05;;
40635;SDS011;26642;55.766;37.828;2023-04-24T12:15:59;5.32;;;3.72;;
40635;SDS011;26642;55.766;37.828;2023-04-24T12:18:30;6.43;;;4.00;;
40635;SDS011;26642;55.766;37.828;2023-04-24T12:21:14;6.25;;;4.03;;
40635;SDS011;26642;55.766;37.828;2023-04-24T12:23:42;5.80;;;4.20;;
40635;SDS011;26642;55.766;37.828;2023-04-24T12:26:12;4.40;;;3.70;;
40635;SDS011;26642;55.766;37.828;2023-04-24T12:28:42;4.30;;;3.90;;
40635;SDS011;26642;55.766;37.828;2023-04-24T12:31:08;4.25;;;3.33;;
40635;SDS011;26642;55.766;37.828;2023-04-24T12:33:34;5.38;;;4.05;;
40635;SDS011;26642;55.766;37.828;2023-04-24T12:36:00;4.00;;;3.20;;
40635;SDS011;26642;55.766;37.828;2023-04-24T12:38:27;4.30;;;3.90;;
40635;SDS011;26642;55.766;37.828;2023-04-24T12:41:05;5.13;;;3.67;;
40635;SDS011;26642;55.766;37.828;2023-04-24T12:43:33;6.15;;;3.72;;
40635;SDS011;26642;55.766;37.828;2023-04-24T12:45:59;3.95;;;3.55;;
40635;SDS011;26642;55.766;37.828;2023-04-24T12:48:28;5.47;;;3.75;;
40635;SDS011;26642;55.766;37.828;2023-04-24T12:50:58;4.28;;;3.40;;
40635;SDS011;26642;55.766;37.828;2023-04-24T12:53:28;5.55;;;3.70;;
40635;SDS011;26642;55.766;37.828;2023-04-24T12:55:57;5.20;;;3.35;;
40635;SDS011;26642;55.766;37.828;2023-04-24T12:58:23;5.50;;;3.47;;
40635;SDS011;26642;55.766;37.828;2023-04-24T13:00:49;4.45;;;3.78;;
40635;SDS011;26642;55.766;37.828;2023-04-24T13:03:15;5.20;;;3.28;;
40635;SDS011;26642;55.766;37.828;2023-04-24T13:05:42;4.15;;;3.45;;
40635;SDS011;26642;55.766;37.828;2023-04-24T13:08:09;3.90;;;3.50;;
40635;SDS011;26642;55.766;37.828;2023-04-24T13:10:35;3.85;;;3.47;;
40635;SDS011;26642;55.766;37.828;2023-04-24T13:13:01;4.28;;;3.50;;
40635;SDS011;26642;55.766;37.828;2023-04-24T13:15:28;5.80;;;3.75;;
40635;SDS011;26642;55.766;37.828;2023-04-24T13:17:54;4.00;;;3.20;;
40635;SDS011;26642;55.766;37.828;2023-04-24T13:20:20;4.38;;;3.60;;
40635;SDS011;26642;55.766;37.828;2023-04-24T13:22:46;4.07;;;3.28;;
40635;SDS011;26642;55.766;37.828;2023-04-24T13:25:12;3.97;;;3.03;;
40635;SDS011;26642;55.766;37.828;2023-04-24T13:27:42;4.32;;;3.55;;
40635;SDS011;26642;55.766;37.828;2023-04-24T13:30:08;5.53;;;3.25;;
40635;SDS011;26642;55.766;37.828;2023-04-24T13:32:34;3.50;;;3.10;;
40635;SDS011;26642;55.766;37.828;2023-04-24T13:35:00;4.68;;;3.50;;
40635;SDS011;26642;55.766;37.828;2023-04-24T13:37:27;3.65;;;3.10;;
40635;SDS011;26642;55.766;37.828;2023-04-24T13:39:53;4.32;;;3.45;;
40635;SDS011;26642;55.766;37.828;2023-04-24T13:42:19;3.90;;;3.50;;
40635;SDS011;26642;55.766;37.828;2023-04-24T13:44:45;4.15;;;3.25;;
40635;SDS011;26642;55.766;37.828;2023-04-24T13:47:11;3.70;;;3.30;;
40635;SDS011;26642;55.766;37.828;2023-04-24T13:49:37;3.78;;;3.33;;
40635;SDS011;26642;55.766;37.828;2023-04-24T13:52:03;4.90;;;3.67;;
40635;SDS011;26642;55.766;37.828;2023-04-24T13:54:30;5.22;;;3.35;;
40635;SDS011;26642;55.766;37.828;2023-04-24T13:56:57;5.25;;;3.70;;
40635;SDS011;26642;55.766;37.828;2023-04-24T13:59:23;3.80;;;3.47;;
40635;SDS011;26642;55.766;37.828;2023-04-24T14:01:50;5.93;;;3.45;;
40635;SDS011;26642;55.766;37.828;2023-04-24T14:04:16;6.32;;;3.70;;
40635;SDS011;26642;55.766;37.828;2023-04-24T14:06:42;4.93;;;3.42;;
40635;SDS011;26642;55.766;37.828;2023-04-24T14:09:08;5.68;;;3.28;;
40635;SDS011;26642;55.766;37.828;2023-04-24T14:11:34;4.65;;;3.40;;
40635;SDS011;26642;55.766;37.828;2023-04-24T14:14:00;3.97;;;2.75;;
40635;SDS011;26642;55.766;37.828;2023-04-24T14:16:27;5.78;;;3.42;;
40635;SDS011;26642;55.766;37.828;2023-04-24T14:18:53;3.70;;;3.20;;
40635;SDS011;26642;55.766;37.828;2023-04-24T14:21:20;5.15;;;3.00;;
40635;SDS011;26642;55.766;37.828;2023-04-24T14:23:45;3.65;;;2.85;;
40635;SDS011;26642;55.766;37.828;2023-04-24T14:26:11;5.38;;;3.50;;
40635;SDS011;26642;55.766;37.828;2023-04-24T14:28:37;3.95;;;3.20;;
40635;SDS011;26642;55.766;37.828;2023-04-24T14:31:03;5.05;;;3.33;;
40635;SDS011;26642;55.766;37.828;2023-04-24T14:33:29;5.55;;;3.13;;
40635;SDS011;26642;55.766;37.828;2023-04-24T14:35:56;4.40;;;3.33;;
40635;SDS011;26642;55.766;37.828;2023-04-24T14:38:22;5.13;;;2.72;;
40635;SDS011;26642;55.766;37.828;2023-04-24T14:40:48;7.70;;;3.35;;
40635;SDS011;26642;55.766;37.828;2023-04-24T14:43:14;4.03;;;3.17;;
40635;SDS011;26642;55.766;37.828;2023-04-24T14:45:40;5.25;;;3.60;;